Flight Track Log - Related Links

Times and Time Zones

All times are in EDT time to prevent confusion due to time zone crossing. See the ASQ4121 flight status page for this flight to view local times or setup timezone preferences in your user account.

Time Position Orientation Groundspeed Altitude Reporting Facility
EDT Latitude Longitude Course Direction KTS MPH feet Rate Location/Type
Wed 07:16:48 AM 36.1000 -86.6833 68° East 150 173 1,200  Level Nashville TRACON
Wed 07:17:37 AM 36.0667 -86.6500 141° Southeast 206 237 2,500 1,884 Climbing Nashville TRACON
Wed 07:18:14 AM 36.0675 -86.6178 88° East 242 278 3,900 2,020 Climbing Memphis Center
Wed 07:19:15 AM 36.0858 -86.5358 75° East 243 280 5,800 2,231 Climbing Memphis Center
Wed 07:20:15 AM 36.1100 -86.4408 72° East 278 320 8,400 2,430 Climbing Memphis Center
Wed 07:21:16 AM 36.1336 -86.3444 73° East 286 329 10,700 1,623 Climbing Memphis Center
Wed 07:22:00 AM 36.2818 -85.8548 68° East  Level FlightAware Approximate
Wed 07:22:17 AM 36.1606 -86.2325 73° East 331 381 11,700  Level Memphis Center
Wed 07:23:18 AM 36.1906 -86.1119 73° East 360 414 13,100 1,426 Climbing Memphis Center
Wed 07:24:19 AM 36.2350 -85.9942 65° Northeast 367 422 14,600 1,279 Climbing Memphis Center
Wed 07:25:20 AM 36.2869 -85.8753 62° Northeast 385 443 15,700 1,131 Climbing Memphis Center
Wed 07:26:21 AM 36.3411 -85.7556 61° Northeast 397 457 16,900 1,180 Climbing Memphis Center
Wed 07:27:22 AM 36.4128 -85.6086 59° Northeast 406 467 18,100 1,131 Climbing Memphis Center
Wed 07:28:23 AM 36.4725 -85.4828 59° Northeast 416 479 19,200 1,041 Climbing Memphis Center
Wed 07:29:23 AM 36.5328 -85.3536 60° Northeast 420 483 20,200 1,140 Climbing Indianapolis Center
Wed 07:30:24 AM 36.5947 -85.2222 60° Northeast 431 496 21,500 1,180 Climbing Indianapolis Center
Wed 07:31:25 AM 36.6431 -85.0869 66° East 430 495 22,600 1,131 Climbing Indianapolis Center
Wed 07:32:26 AM 36.6858 -84.9442 69° East 432 497 23,800 1,317 Climbing Indianapolis Center
Wed 07:33:28 AM 36.7300 -84.8044 68° East 433 498 25,300 1,415 Climbing Indianapolis Center
Wed 07:34:29 AM 36.7722 -84.6636 69° East 433 498 26,700 1,426 Climbing Indianapolis Center
Wed 07:35:30 AM 36.8133 -84.5231 70° East 432 497 28,200 1,525 Climbing Indianapolis Center
Wed 07:36:31 AM 36.8589 -84.3753 69° East 432 497 29,800 1,967 Climbing Indianapolis Center
Wed 07:37:32 AM 36.8997 -84.2364 70° East 427 491 32,200 2,098 Climbing Indianapolis Center
Wed 07:38:34 AM 36.9147 -84.1008 82° East 401 461 34,100 1,659 Climbing Indianapolis Center
Wed 07:39:35 AM 36.9097 -83.9617 93° East 400 460 35,600 1,328 Climbing Indianapolis Center
Wed 07:40:36 AM 36.9186 -83.8231 85° East 400 460 36,800 689 Climbing Indianapolis Center
Wed 07:41:37 AM 36.9536 -83.6839 72° East 415 478 37,000 98 Climbing Indianapolis Center
Wed 07:42:39 AM 36.9933 -83.5336 72° East 445 512 37,000  Level Indianapolis Center
Wed 07:43:40 AM 37.0456 -83.3831 66° East 464 534 37,000  Level Indianapolis Center
Wed 07:44:41 AM 37.1011 -83.2278 66° East 479 551 37,000  Level Indianapolis Center
Wed 07:45:43 AM 37.1531 -83.0728 67° East 479 551 37,000  Level Indianapolis Center
Wed 07:46:44 AM 37.2222 -82.9017 63° Northeast 470 541 37,000  Level Indianapolis Center
Wed 07:47:46 AM 37.2886 -82.7678 58° Northeast 453 521 37,000  Level Indianapolis Center
Wed 07:48:47 AM 37.3558 -82.6364 57° Northeast 449 517 37,000  Level Indianapolis Center
Wed 07:49:48 AM 37.4203 -82.5025 59° Northeast 447 514 37,000  Level Indianapolis Center
Wed 07:50:50 AM 37.4589 -82.3511 72° East 454 522 37,000  Level Indianapolis Center
Wed 07:51:51 AM 37.5011 -82.1958 71° East 461 531 37,000  Level Indianapolis Center
Wed 07:52:53 AM 37.5431 -82.0383 71° East 468 539 37,000  Level Indianapolis Center
Wed 07:53:54 AM 37.5856 -81.8792 71° East 475 547 37,000  Level Indianapolis Center
Wed 07:54:55 AM 37.6258 -81.7178 72° East 476 548 37,000  Level Indianapolis Center
Wed 07:55:57 AM 37.6764 -81.5286 71° East 482 555 37,000  Level Indianapolis Center
Wed 07:56:58 AM 37.7136 -81.3833 72° East 485 558 37,000  Level Indianapolis Center
Wed 07:58:00 AM 37.7553 -81.2203 72° East 485 558 37,000  Level Indianapolis Center
Wed 07:59:01 AM 37.7856 -81.0553 77° East 485 558 37,000  Level Indianapolis Center
Wed 08:00:03 AM 37.7953 -80.8875 86° East 479 551 37,000  Level Indianapolis Center
Wed 08:01:04 AM 37.8078 -80.7172 85° East 483 556 37,000  Level Indianapolis Center
Wed 08:02:06 AM 37.8197 -80.5347 85° East 484 557 37,000  Level Indianapolis Center
Wed 08:03:08 AM 37.8314 -80.3472 85° East 479 551 37,000  Level Washington Center
Wed 08:04:09 AM 37.8425 -80.1786 85° East 480 552 37,000  Level Washington Center
Wed 08:05:12 AM 37.8522 -80.0103 86° East 480 552 37,000  Level Washington Center
Wed 08:06:13 AM 37.8617 -79.8406 86° East 480 552 37,000  Level Washington Center
Wed 08:07:16 AM 37.8717 -79.6717 86° East 480 552 37,000  Level Washington Center
Wed 08:08:17 AM 37.8814 -79.5011 86° East 480 552 37,000  Level Washington Center
Wed 08:09:18 AM 37.8897 -79.3300 86° East 481 554 37,000  Level Washington Center
Wed 08:10:22 AM 37.9011 -79.1250 86° East 481 554 37,000  Level Washington Center
Wed 08:11:23 AM 37.9194 -78.9564 82° East 481 554 37,000  Level Washington Center
Wed 08:12:27 AM 37.9397 -78.7881 81° East 482 555 37,000  Level Washington Center
Wed 08:13:27 AM 37.9603 -78.6200 81° East 482 555 37,000  Level Washington Center
Wed 08:14:31 AM 37.9794 -78.4517 82° East 482 555 37,000  Level Washington Center
Wed 08:15:32 AM 38.0000 -78.2831 81° East 483 556 37,000  Level Washington Center
Wed 08:16:36 AM 38.0467 -78.0878 73° East 487 560 37,000  Level Washington Center
Wed 08:17:37 AM 38.1181 -77.9436 58° Northeast 485 558 37,000  Level Washington Center
Wed 08:18:38 AM 38.1897 -77.8006 57° Northeast 485 558 37,000  Level Washington Center
Wed 08:19:41 AM 38.2617 -77.6575 57° Northeast 484 557 37,000  Level Washington Center
Wed 08:20:45 AM 38.3317 -77.5139 58° Northeast 484 557 37,000  Level Washington Center
Wed 08:21:46 AM 38.4158 -77.3417 58° Northeast 484 557 37,000  Level Washington Center
Wed 08:22:49 AM 38.4861 -77.1992 58° Northeast 481 554 37,000  Level Washington Center
Wed 08:23:51 AM 38.5553 -77.0572 58° Northeast 480 552 37,000  Level Washington Center
Wed 08:24:51 AM 38.6242 -76.9142 58° Northeast 476 548 37,000  Level Washington Center
Wed 08:25:54 AM 38.6942 -76.7719 58° Northeast 476 548 37,000  Level Washington Center
Wed 08:26:55 AM 38.8050 -76.6303 45° Northeast 473 544 37,000 -581 Level Washington Center
Wed 08:27:58 AM 38.9039 -76.5194 41° Northeast 473 544 35,800 -1,795 Descending Washington Center
Wed 08:29:02 AM 39.0000 -76.4061 42° Northeast 471 542 33,200 -2,468 Descending Washington Center
Wed 08:30:02 AM 39.0956 -76.2942 42° Northeast 470 541 30,700 -2,516 Descending Washington Center
Wed 08:31:06 AM 39.1931 -76.1803 42° Northeast 471 542 28,000 -1,748 Descending Washington Center
Wed 08:32:09 AM 39.2956 -76.0617 42° Northeast 476 548 27,000 -484 Descending Washington Center
Wed 08:33:10 AM 39.3944 -75.9433 43° Northeast 481 554 27,000 -49 Level Washington Center
Wed 08:34:11 AM 39.5147 -75.8044 42° Northeast 482 555 26,900 -1,355 Descending Washington Center
Wed 08:35:14 AM 39.6122 -75.6850 43° Northeast 482 555 24,200 -2,613 Descending Washington Center
Wed 08:36:15 AM 39.7083 -75.5719 42° Northeast 466 536 21,500 -2,429 Descending Washington Center
Wed 08:37:20 AM 39.7994 -75.4633 42° Northeast 448 516 19,100 -2,208 Descending Washington Center
Wed 08:38:20 AM 39.8875 -75.3539 44° Northeast 434 499 16,900 -2,281 Descending Washington Center
Wed 08:39:21 AM 39.9717 -75.2525 43° Northeast 417 480 14,500 -2,400 Descending Washington Center
Wed 08:40:25 AM 40.0503 -75.1550 43° Northeast 386 444 11,900 -1,750 Descending Washington Center
Wed 08:41:21 AM 40.1333 -75.0500 44° Northeast 332 382 11,000 -1,091 Descending New York TRACON
Wed 08:42:15 AM 40.1833 -75.0000 37° Northeast 290 334 9,900 -1,474 Descending New York TRACON
Wed 08:43:15 AM 40.2333 -74.9167 52° Northeast 290 334 8,200 -900 Descending New York TRACON
Wed 08:44:15 AM 40.3000 -74.8500 37° Northeast 287 330 8,100 -421 Descending New York TRACON
Wed 08:45:09 AM 40.3500 -74.7833 45° Northeast 282 325 7,400 -889 Descending New York TRACON
Wed 08:46:03 AM 40.4000 -74.7167 45° Northeast 276 318 6,500 -737 Descending New York TRACON
Wed 08:47:03 AM 40.4667 -74.6667 30° Northeast 275 316 6,000 -200 Descending New York TRACON
Wed 08:48:03 AM 40.5333 -74.6333 21° North 271 312 6,100 50 Climbing New York TRACON
Wed 08:49:03 AM 40.6000 -74.6167 11° North 270 311 6,100  Level New York TRACON
Wed 08:49:57 AM 40.6667 -74.6000 11° North 273 314 6,100 -105 Level New York TRACON
Wed 08:50:57 AM 40.7333 -74.5667 21° North 276 318 5,900 -500 Descending New York TRACON
Wed 08:51:57 AM 40.7833 -74.5000 45° Northeast 274 315 5,100 -400 Descending New York TRACON
Wed 08:52:57 AM 40.8333 -74.4333 45° Northeast 268 308 5,100  Level New York TRACON
Wed 08:53:57 AM 40.9000 -74.3500 43° Northeast 273 314 5,100 -316 Level New York TRACON
Wed 08:54:51 AM 40.9167 -74.2833 72° East 269 310 4,500 -579 Descending New York TRACON
Wed 08:55:51 AM 40.9000 -74.1833 102° East 263 303 4,000 -500 Descending New York TRACON
Wed 08:56:51 AM 40.8667 -74.1000 118° Southeast 259 298 3,500 -800 Descending New York TRACON
Wed 08:57:51 AM 40.8000 -74.0833 169° South 254 292 2,400 -1,100 Descending New York TRACON
Wed 08:58:51 AM 40.7500 -74.1167 207° Southwest 175 201 1,300 -900 Descending New York TRACON
Wed 08:59:51 AM 40.7167 -74.1500 217° Southwest 139 160 600 -700 Descending New York TRACON
Wed 09:01:00 AM 40.6925 -74.1687 201° Southwest  Level Estimated

Login

Don't have an account? Register now (free) for customized features, flight alerts, and more!